• Join FlightAware (Why Join?)
  • Login
  • US Flag 
04:49AM EDT


 

Airport Tracker/Info


-or-


 

Live Flight TrackerFlight Track Log ✈ JBU128 ✈ 16-Jun-2013 ✈ KJFK - KBTV

Flight Track Log - Related Links

Times and Time Zones

All times are in EDT time to prevent confusion due to time zone crossing. See the JBU128 flight status page for this flight to view local times or setup timezone preferences in your user account.

Time Position Orientation Groundspeed Altitude Reporting Facility
EDT Latitude Longitude Course Direction KTS MPH feet Rate Location/Type
11:03PM 40.6167 -73.8667 14° North 182 209 2,900  Level New York TRACON
11:04PM 40.8759 -73.6333 North  Level FlightAware Approximate
11:05PM 40.9636 -73.5932 21° North  Level FlightAware Approximate
11:05PM 40.6006 -73.7519 100° East 135 155 8,800  Level Boston Center
11:06PM 41.0492 -73.5450 27° Northeast  Level FlightAware Approximate
11:06PM 40.6700 -73.6797 38° Northeast 217 250 10,900  Level Boston Center
11:07PM 41.1324 -73.4896 27° Northeast  Level FlightAware Approximate
11:07PM 40.7686 -73.6375 18° North 300 345 11,400  Level Boston Center
11:08PM 41.2186 -73.4438 14° North  Level FlightAware Approximate
11:08PM 40.8689 -73.5928 19° North 337 388 11,900  Level Boston Center
11:09PM 40.9675 -73.5478 19° North 355 409 12,700 1,020 Climbing Boston Center
11:10PM 41.0678 -73.5000 20° North 376 433 14,000 1,200 Climbing Boston Center
11:11PM 41.1831 -73.4494 18° North 389 448 15,200 1,500 Climbing Boston Center
11:12PM 41.2772 -73.4067 19° North 389 448 17,100 1,980 Climbing Boston Center
11:13PM 41.3858 -73.3586 18° North 395 455 19,200 1,860 Climbing Boston Center
11:14PM 41.4947 -73.2964 23° Northeast 408 470 20,900 900 Climbing Boston Center
11:15PM 41.6117 -73.2842 North 408 470 21,000  Climbing Boston Center
11:16PM 41.7200 -73.2911 357° North 402 463 21,000  Level Boston Center
11:17PM 41.8344 -73.2956 358° North 402 463 21,000  Level Boston Center
11:18PM 41.9469 -73.3025 357° North 402 463 21,000  Level Boston Center
11:19PM 42.0636 -73.3069 358° North 407 468 21,000  Level Boston Center
11:20PM 42.1783 -73.3114 358° North 407 468 21,000  Level Boston Center
11:21PM 42.2950 -73.3186 357° North 407 468 21,000  Level Boston Center
11:22PM 42.4136 -73.3147 North 412 474 21,000  Level Boston Center
11:23PM 42.5283 -73.3192 358° North 412 474 21,000  Level Boston Center
11:24PM 42.6533 -73.3350 355° North 412 474 21,000  Level Boston Center
11:25PM 42.7700 -73.3367 359° North 412 474 21,000  Level Boston Center
11:26PM 42.8928 -73.3442 357° North 422 486 21,000  Level Boston Center
11:27PM 43.0117 -73.3458 359° North 422 486 21,000  Level Boston Center
11:28PM 43.1325 -73.3306 North 422 486 21,000  Level Boston Center
11:29PM 43.2514 -73.3153 North 422 486 21,000  Level Boston Center
11:30PM 43.3725 -73.2969 North 422 486 21,000 -360 Level Boston Center
11:31PM 43.4769 -73.2842 North 422 486 20,300 -1,020 Descending Boston Center
11:32PM 43.5958 -73.2686 North 422 486 19,000 -1,500 Descending Boston Center
11:33PM 43.7083 -73.2558 North 422 486 17,300 -1,680 Descending Boston Center
11:34PM 43.8000 -73.2425 North 416 479 15,700 -1,980 Descending Boston Center
11:35PM 43.9272 -73.2269 North 396 456 13,400 -2,340 Descending Boston Center
11:36PM 44.0419 -73.2111 North 382 440 11,100 -1,200 Descending Boston Center
11:37PM 44.1400 -73.1981 North 364 419 11,000 -180 Descending Boston Center
11:38PM 44.2336 -73.2108 354° North 344 396 10,800 -780 Descending Boston Center
11:39PM 44.3086 -73.2350 347° North 298 343 9,500 -1,800 Descending Boston Center
11:40PM 44.3792 -73.2678 342° North 272 313 7,200 -2,220 Descending Boston Center
11:41PM 44.4372 -73.3181 328° Northwest 254 292 5,100 -2,160 Descending Boston Center
11:42PM 44.4950 -73.3683 328° Northwest 244 281 2,900 -1,320 Descending Boston Center
11:43PM 44.5597 -73.3608 North 231 266 2,500 -360 Descending Boston Center
11:44PM 44.5542 -73.2850 96° East 172 198 2,200 -540 Descending Boston Center
11:45PM 44.5192 -73.2292 131° Southeast 146 168 1,500 -720 Descending Boston Center
11:46PM 44.4922 -73.1881 133° Southeast 153 176 800 -720 Descending Boston Center